Nearby METAR Reports

 

KCRE - North Myrtle Bea, South Carolina, USA
Distance from station: SW 11mi, 18km
Updated: 10/23/2018 2:53pm
Partly cloudy
Partly cloudy
 Wind from W
Wind: W 9 mph , 15 km/h
Temperature: 75°F , 24°C
Dew Point: 55°F , 13°C
Humidity: 50%
Barometer: 30.12 inHg , 1020 hPa
Clouds: Partly cloudy
Visibility: 10 miles , 16 km
Cloud details: Partly cloudy 4700 ft
2018/10/23 18:53 KCRE 231853Z 27008KT 10SM SCT047 24/13 A3012 RMK AO1 SLP200 T02390128
KCPC - Whiteville, North Carolina, USA
Distance from station: NNW 26mi, 42km
Updated: 10/23/2018 2:55pm
Clear
Clear
 Wind from W
Wind: W 5 mph , 7 km/h
Temperature: 73°F , 23°C
Dew Point: 52°F , 11°C
Humidity: 47%
Barometer: 30.12 inHg , 1020 hPa
Clouds: Clear
Visibility: 10 miles , 16 km
2018/10/23 18:55 KCPC 231855Z AUTO 26004KT 10SM CLR 23/11 A3012 RMK AO2 T02250107
 
KMYR - Myrtle Beach, South Carolina, USA
Distance from station: SW 27mi, 43km
Updated: 10/23/2018 2:56pm
Mostly cloudy
Mostly cloudy
 Wind from WNW
Wind: WNW 5 mph , 7 km/h
Temperature: 73°F , 23°C
Dew Point: 55°F , 13°C
Humidity: 53%
Barometer: 30.14 inHg , 1020.7 hPa
Clouds: Mostly cloudy
Visibility: 10 miles , 16 km
Cloud details: Mostly cloudy 4800 ft
2018/10/23 18:56 KMYR 231856Z 29004KT 10SM BKN048 23/13 A3014 RMK AO2 SLP206 T02280133
KSUT - Southport, North Carolina, USA
Distance from station: E 28mi, 45km
Updated: 10/23/2018 3:05pm
Clear
Clear
 Wind from SSW
Wind: SSW 5 mph , 7 km/h
Temperature: 73°F , 23°C
Dew Point: 55°F , 13°C
Humidity: 53%
Barometer: 30.12 inHg , 1020 hPa
Clouds: Clear
Visibility: 10 miles , 16 km
2018/10/23 19:05 KSUT 231905Z AUTO 20004KT 10SM CLR 23/13 A3012 RMK AO2 T02260126
 
KHYW - Conway-Horry Cty, South Carolina, USA
Distance from station: WSW 32mi, 52km
Updated: 10/23/2018 2:55pm
Clear
Clear
 Wind from WSW
Wind: WSW 6 mph , 9 km/h
Temperature: 73°F , 23°C
Dew Point: 54°F , 12°C
Humidity: 50%
Barometer: 30.13 inHg , 1020.3 hPa
Clouds: Clear
Visibility: 7 miles , 11 km
2018/10/23 18:55 KHYW 231855Z AUTO 24005KT 7SM CLR 23/12 A3013 RMK AO2
KILM - Wilmington, North Carolina, USA
Distance from station: ENE 45mi, 72km
Updated: 10/23/2018 2:53pm
Clear
Clear
 Wind from W
Wind: W 8 mph , 13 km/h
Temperature: 75°F , 24°C
Dew Point: 52°F , 11°C
Humidity: 44%
Barometer: 30.12 inHg , 1020 hPa
Clouds: Clear
Visibility: 10 miles , 16 km
2018/10/23 18:53 KILM 231853Z 27007KT 10SM CLR 24/11 A3012 RMK AO2 SLP198 T02390111
 
KEYF - Elizabethtown, North Carolina, USA
Distance from station: N 47mi, 75km
Updated: 10/23/2018 3:00pm
Clear
Clear
 Wind from SW
Wind: SW 7 mph , 11 km/h
Temperature: 72°F , 22°C
Dew Point: 50°F , 10°C
Humidity: 47%
Barometer: 30.12 inHg , 1020 hPa
Clouds: Clear
Visibility: 10 miles , 16 km
2018/10/23 19:00 KEYF 231900Z AUTO 22006KT 10SM CLR 22/10 A3012 RMK AO2 T02180103
KMAO - Marion, South Carolina, USA
Distance from station: WNW 47mi, 76km
Updated: 10/23/2018 3:15pm
Clear
Clear
 Wind from W
Wind: W 3 mph , 6 km/h
Temperature: 70°F , 21°C
Dew Point: 52°F , 11°C
Humidity: 53%
Barometer: 30.13 inHg , 1020.3 hPa
Clouds: Clear
Visibility: 10 miles , 16 km
2018/10/23 19:15 KMAO 231915Z AUTO 28003KT 10SM CLR 21/11 A3013 RMK AO2
 
KLBT - Lumberton, North Carolina, USA
Distance from station: NNW 55mi, 88km
Updated: 10/23/2018 2:54pm
Clear
Clear
 Wind from WNW
Wind: WNW 8 mph , 13 km/h
Temperature: 72°F , 22°C
Dew Point: 50°F , 10°C
Humidity: 47%
Barometer: 30.12 inHg , 1020 hPa
Clouds: Clear
Visibility: 10 miles , 16 km
2018/10/23 18:54 KLBT 231854Z AUTO 30007KT 10SM CLR 22/10 A3012 RMK AO2 SLP199 T02170100
KGGE - Georgetown, South Carolina, USA
Distance from station: SW 60mi, 97km
Updated: 10/23/2018 3:15pm
Overcast
Overcast
 Wind from calm
Wind: Calm
Temperature: 72°F , 22°C
Dew Point: 55°F , 13°C
Humidity: 57%
Barometer: 30.14 inHg , 1020.7 hPa
Clouds: Overcast
Visibility: 10 miles , 16 km
Cloud details: Overcast 8000 ft
2018/10/23 19:15 KGGE 231915Z AUTO 00000KT 10SM OVC080 22/13 A3014 RMK AO2
 
KFLO - Florence, South Carolina, USA
Distance from station: WNW 69mi, 111km
Updated: 10/23/2018 2:53pm
Clear
Clear
 Wind from NW
Wind: NW 10 mph , 17 km/h
Temperature: 73°F , 23°C
Dew Point: 52°F , 11°C
Humidity: 47%
Barometer: 30.14 inHg , 1020.7 hPa
Clouds: Clear
Visibility: 10 miles , 16 km
2018/10/23 18:53 KFLO 231853Z 32009KT 10SM CLR 23/11 A3014 RMK AO2 SLP203 T02280111
KCTZ - Clinton, North Carolina, USA
Distance from station: N 74mi, 119km
Updated: 10/23/2018 3:00pm
Clear
Clear
 Wind from W
Wind: W 6 mph , 9 km/h
Temperature: 72°F , 22°C
Dew Point: 52°F , 11°C
Humidity: 50%
Barometer: 30.12 inHg , 1020 hPa
Clouds: Clear
Visibility: 10 miles , 16 km
2018/10/23 19:00 KCTZ 231900Z AUTO 26005KT 10SM CLR 22/11 A3012 RMK AO2 T02190106
 
KMEB - Maxton, North Carolina, USA
Distance from station: NW 75mi, 120km
Updated: 10/23/2018 2:52pm
Clear
Clear
 Wind from WNW
Wind: WNW 9 mph , 15 km/h
Temperature: 70°F , 21°C
Dew Point: 50°F , 10°C
Humidity: 50%
Barometer: 30.14 inHg , 1020.7 hPa
Clouds: Clear
Visibility: 10 miles , 16 km
2018/10/23 18:52 KMEB 231852Z AUTO 29008KT 10SM CLR 21/10 A3014 RMK AO2 SLP203 T02110100
KCKI - Kingstree, South Carolina, USA
Distance from station: W 75mi, 121km
Updated: 10/23/2018 3:15pm

 Wind from W
Wind: W 5 mph , 7 km/h
Temperature: 73°F , 23°C
Dew Point: 50°F , 10°C
Humidity: 44%
Barometer: 30.12 inHg , 1020 hPa
Visibility: 10 miles , 16 km
2018/10/23 19:15 KCKI 231915Z AUTO 26004KT 10SM 23/10 A3012 RMK AO2
 
KFAY - Fayetteville, North Carolina, USA
Distance from station: NNW 75mi, 121km
Updated: 10/23/2018 2:53pm
Clear
Clear
 Wind from W
Wind: W 13 mph , 20 km/h
Temperature: 72°F , 22°C
Dew Point: 46°F , 8°C
Humidity: 41%
Barometer: 30.12 inHg , 1020 hPa
Clouds: Clear
Visibility: 10 miles , 16 km
2018/10/23 18:53 KFAY 231853Z 28011KT 10SM CLR 22/08 A3012 RMK AO2 SLP193 T02170078
KBBP - Marlboro Cnty, South Carolina, USA
Distance from station: NW 82mi, 132km
Updated: 10/23/2018 3:15pm
Clear
Clear
 Wind from WNW
Wind: WNW 6 mph , 9 km/h
Temperature: 70°F , 21°C
Dew Point: 50°F , 10°C
Humidity: 50%
Barometer: 30.12 inHg , 1020 hPa
Clouds: Clear
Visibility: 10 miles , 16 km
2018/10/23 19:15 KBBP 231915Z AUTO 29005KT 10SM CLR 21/10 A3012 RMK AO2
 
KDPL - Kenansville/Dupl, North Carolina, USA
Distance from station: NNE 82mi, 132km
Updated: 10/21/2018 2:35pm
NOT Current
Clear
Clear
 Wind from NNW
Wind: NNW 10 mph , 17 km/h, Gust: 20 mph , 31 km/h
Temperature: 59°F , 15°C
Dew Point: 30°F , -1°C
Humidity: 34%
Barometer: 30.15 inHg , 1021 hPa
Clouds: Clear
Visibility: 10 miles , 16 km
2018/10/21 18:35 KDPL 211835Z AUTO 33009G17KT 10SM CLR 15/M01 A3015 RMK AO2
KOAJ - Jacksonville, North Carolina, USA
Distance from station: NE 82mi, 132km
Updated: 10/23/2018 2:56pm
Clear
Clear
 Wind from SW
Wind: SW 8 mph , 13 km/h
Temperature: 72°F , 22°C
Dew Point: 52°F , 11°C
Humidity: 50%
Barometer: 30.12 inHg , 1020 hPa
Clouds: Clear
Visibility: 10 miles , 16 km
2018/10/23 18:56 KOAJ 231856Z AUTO 23007KT 10SM CLR 22/11 A3012 RMK AO2 SLP203 T02220106
 
KUDG - Darlington Cnty, South Carolina, USA
Distance from station: WNW 83mi, 134km
Updated: 10/23/2018 2:56pm
Clear
Clear
 Wind from W
Wind: W 9 mph , 15 km/h
Temperature: 70°F , 21°C
Dew Point: 52°F , 11°C
Humidity: 53%
Barometer: 30.14 inHg , 1020.7 hPa
Clouds: Clear
Visibility: 10 miles , 16 km
2018/10/23 18:56 KUDG 231856Z AUTO 28008KT 10SM CLR 21/11 A3014 RMK AO2 SLP212 T02110111
KNCA - New River Mcas, North Carolina, USA
Distance from station: NE 84mi, 135km
Updated: 10/23/2018 2:56pm
Clear
Clear
 Wind from W
Wind: W 13 mph , 20 km/h
Temperature: 72°F , 22°C
Dew Point: 52°F , 11°C
Humidity: 50%
Barometer: 30.11 inHg , 1019.6 hPa
Clouds: Clear
Visibility: 10 miles , 16 km
2018/10/23 18:56 KNCA 231856Z 27011KT 10SM CLR 22/11 A3011 RMK AO2 SLP197 T02220111